Terminal Aerodrome Forecast
Issued by NWS

Home | Current Version | Previous Version | Text Only | Print | Product List | Glossary On
Versions: 1 2 3 4 5 6 7 8 9 10 11 12
000
FTUS45 KGJT 222331
TAFCNY
TAF
KCNY 222331Z 2300/2324 22011G17KT P6SM VCSH FEW110
      TEMPO 2300/2302 VRB18G27KT -SHRA BKN110
     FM230200 26011KT P6SM FEW120 SCT200
     FM230800 25009KT P6SM FEW100 SCT150
     FM231700 20007KT P6SM FEW090 SCT200
     FM232100 19011KT P6SM FEW090 SCT140=

USA.gov is the U.S. government's official web portal to all federal, state and local government web resources and services.